createdAt,value
2023-02-11T00:00:41.576Z,84.33
2023-02-11T00:02:46.135Z,84.42
2023-02-11T00:04:49.206Z,84.52
2023-02-11T00:06:50.615Z,84.62
2023-02-11T00:08:52.177Z,84.82
2023-02-11T00:10:55.333Z,84.61
2023-02-11T00:12:56.759Z,84.79
2023-02-11T00:14:58.149Z,84.77
2023-02-11T00:16:59.646Z,84.96
2023-02-11T00:19:02.369Z,84.75
2023-02-11T00:21:18.068Z,85.00
2023-02-11T00:23:19.467Z,85.20
2023-02-11T00:25:20.953Z,85.36
2023-02-11T00:27:22.437Z,85.33
2023-02-11T00:29:23.928Z,85.12
2023-02-11T00:31:25.884Z,85.08
2023-02-11T00:33:27.368Z,85.48
2023-02-11T00:35:28.970Z,85.76
2023-02-11T00:37:30.364Z,85.18
2023-02-11T00:39:31.926Z,85.79
2023-02-11T00:41:33.769Z,84.92
2023-02-11T00:43:35.834Z,85.14
2023-02-11T00:45:37.274Z,85.45
2023-02-11T00:47:38.687Z,85.25
2023-02-11T00:49:40.387Z,85.28
2023-02-11T00:51:42.049Z,85.51
2023-02-11T00:53:43.536Z,85.22
2023-02-11T00:55:44.931Z,85.08
2023-02-11T00:57:46.385Z,85.28
2023-02-11T00:59:47.830Z,84.67
2023-02-11T01:01:49.290Z,84.78
2023-02-11T01:03:51.058Z,85.09
2023-02-11T01:05:53.027Z,84.95
2023-02-11T01:07:54.512Z,84.92
2023-02-11T01:09:56.279Z,84.56
2023-02-11T01:11:57.670Z,85.24
2023-02-11T01:13:59.113Z,85.11
2023-02-11T01:16:01.011Z,84.80
2023-02-11T01:18:02.432Z,85.07
2023-02-11T01:20:07.966Z,84.59
2023-02-11T01:22:09.463Z,84.53
2023-02-11T01:24:10.831Z,84.52
2023-02-11T01:26:12.463Z,84.59
2023-02-11T01:28:23.367Z,84.20
2023-02-11T01:30:24.793Z,84.45
2023-02-11T01:32:26.271Z,85.03
2023-02-11T01:34:28.417Z,84.21
2023-02-11T01:36:29.847Z,83.96
2023-02-11T01:38:32.364Z,84.54
2023-02-11T01:40:34.289Z,84.84
2023-02-11T01:42:35.770Z,84.24
2023-02-11T01:44:40.010Z,84.03
2023-02-11T01:46:41.535Z,84.15
2023-02-11T01:48:50.651Z,84.39
2023-02-11T01:50:58.840Z,84.00
2023-02-11T01:53:20.711Z,84.61
2023-02-11T01:55:41.129Z,84.40
2023-02-11T01:57:47.271Z,84.34
2023-02-11T01:59:51.649Z,84.49
2023-02-11T02:01:58.463Z,84.91
2023-02-11T02:04:03.159Z,84.34
2023-02-11T02:06:10.903Z,84.59
2023-02-11T02:08:40.836Z,85.31
2023-02-11T02:10:46.134Z,85.15
2023-02-11T02:12:47.662Z,85.33
2023-02-11T02:14:49.065Z,85.23
2023-02-11T02:16:50.532Z,85.18
2023-02-11T02:19:39.456Z,85.60
2023-02-11T02:21:59.365Z,84.81
2023-02-11T02:24:15.927Z,85.41
2023-02-11T02:27:02.006Z,85.39
2023-02-11T02:29:23.262Z,85.54
2023-02-11T02:31:50.798Z,85.66
2023-02-11T02:34:11.388Z,85.21
2023-02-11T02:36:22.424Z,85.73
2023-02-11T02:38:30.370Z,85.52
2023-02-11T02:40:54.514Z,85.03
2023-02-11T02:42:57.731Z,85.20
2023-02-11T02:44:59.225Z,85.16
2023-02-11T02:47:00.685Z,84.91
2023-02-11T02:49:06.189Z,85.40
2023-02-11T02:51:57.845Z,85.03
2023-02-11T02:54:23.422Z,84.85
2023-02-11T02:56:28.884Z,85.28
2023-02-11T02:58:47.479Z,85.26
2023-02-11T03:01:21.396Z,85.18
2023-02-11T03:03:48.549Z,85.21
2023-02-11T03:06:00.036Z,84.84
2023-02-11T03:08:13.805Z,84.85
2023-02-11T03:10:18.883Z,85.59
2023-02-11T03:12:22.132Z,85.72
2023-02-11T03:14:26.754Z,85.58
2023-02-11T03:16:30.097Z,85.45
2023-02-11T03:18:35.218Z,85.14
2023-02-11T03:20:41.864Z,85.38
2023-02-11T03:22:55.604Z,85.77
2023-02-11T03:24:57.158Z,85.49
2023-02-11T03:27:04.693Z,86.01
2023-02-11T03:29:33.314Z,86.06
2023-02-11T03:31:47.640Z,86.00
2023-02-11T03:34:08.741Z,85.71
2023-02-11T03:36:15.795Z,85.85
2023-02-11T03:38:26.239Z,85.59
2023-02-11T03:40:32.499Z,85.93
2023-02-11T03:42:47.953Z,86.11
2023-02-11T03:44:55.030Z,85.85
2023-02-11T03:46:56.517Z,85.60
2023-02-11T03:49:04.974Z,85.90
2023-02-11T03:51:09.485Z,86.19
2023-02-11T03:53:13.008Z,85.83
2023-02-11T03:55:18.365Z,85.95
2023-02-11T03:57:19.823Z,85.85
2023-02-11T03:59:21.426Z,86.24
2023-02-11T04:01:22.954Z,86.01
2023-02-11T04:03:24.394Z,86.51
2023-02-11T04:05:25.894Z,86.06
2023-02-11T04:07:27.543Z,86.70
2023-02-11T04:09:28.887Z,86.24
2023-02-11T04:11:30.319Z,86.83
2023-02-11T04:13:31.756Z,87.13
2023-02-11T04:15:33.280Z,87.24
2023-02-11T04:17:34.840Z,87.63
2023-02-11T04:19:36.357Z,88.02
2023-02-11T04:21:37.743Z,87.90
2023-02-11T04:23:39.126Z,87.85
2023-02-11T04:25:40.515Z,88.24
2023-02-11T04:27:41.985Z,88.15
2023-02-11T04:29:43.372Z,88.68
2023-02-11T04:31:45.020Z,88.63
2023-02-11T04:33:46.436Z,88.27
2023-02-11T04:35:48.326Z,89.18
2023-02-11T04:37:49.847Z,89.14
2023-02-11T04:39:51.259Z,89.37
2023-02-11T04:41:52.609Z,89.46
2023-02-11T04:43:54.009Z,89.90
2023-02-11T04:45:58.855Z,89.40
2023-02-11T04:48:02.757Z,90.39
2023-02-11T04:50:04.885Z,89.95
2023-02-11T04:52:06.318Z,90.25
2023-02-11T04:54:08.481Z,89.86
2023-02-11T04:56:09.885Z,90.07
2023-02-11T04:58:11.221Z,91.03
2023-02-11T05:00:13.435Z,90.68
2023-02-11T05:02:14.850Z,90.73
2023-02-11T05:04:17.212Z,90.59
2023-02-11T05:06:18.764Z,91.00
2023-02-11T05:08:20.117Z,90.78
2023-02-11T05:10:21.601Z,90.93
2023-02-11T05:12:23.085Z,90.98
2023-02-11T05:14:24.468Z,90.82
2023-02-11T05:16:25.985Z,90.80
2023-02-11T05:18:27.401Z,90.69
2023-02-11T05:20:28.841Z,91.48
2023-02-11T05:22:30.387Z,91.33
2023-02-11T05:24:32.446Z,90.83
2023-02-11T05:26:33.887Z,91.00
2023-02-11T05:28:36.130Z,90.93
2023-02-11T05:30:37.587Z,91.15
2023-02-11T05:35:05.572Z,91.10
2023-02-11T05:37:06.989Z,91.42
2023-02-11T05:39:08.465Z,91.30
2023-02-11T05:41:10.855Z,90.95
2023-02-11T05:43:12.229Z,91.25
2023-02-11T05:45:13.645Z,91.58
2023-02-11T05:47:15.024Z,92.17
2023-02-11T05:49:17.454Z,91.32
2023-02-11T05:51:18.908Z,91.09
2023-02-11T05:53:20.348Z,91.07
2023-02-11T05:55:21.740Z,91.43
2023-02-11T05:57:23.262Z,90.96
2023-02-11T05:59:24.717Z,90.82
2023-02-11T06:01:26.574Z,91.02
2023-02-11T06:03:28.177Z,90.88
2023-02-11T06:05:29.680Z,91.56
2023-02-11T06:07:31.086Z,91.69
2023-02-11T06:09:32.451Z,91.35
2023-02-11T06:11:33.847Z,91.56
2023-02-11T06:13:36.176Z,91.62
2023-02-11T06:15:37.644Z,91.16
2023-02-11T06:17:39.107Z,91.44
2023-02-11T06:19:40.533Z,90.91
2023-02-11T06:21:44.289Z,91.43
2023-02-11T06:23:46.002Z,91.48
2023-02-11T06:25:47.410Z,91.76
2023-02-11T06:27:48.813Z,90.99
2023-02-11T06:29:52.330Z,91.98
2023-02-11T06:31:53.774Z,91.44
2023-02-11T06:33:55.236Z,91.52
2023-02-11T06:35:56.599Z,91.27
2023-02-11T06:37:57.992Z,91.63
2023-02-11T06:39:59.382Z,91.29
2023-02-11T06:42:00.739Z,91.76
2023-02-11T06:44:02.110Z,92.00
2023-02-11T06:46:03.626Z,91.49
2023-02-11T06:48:05.129Z,91.05
2023-02-11T06:50:08.308Z,91.15
2023-02-11T06:52:09.697Z,91.33
2023-02-11T06:54:12.489Z,91.11
2023-02-11T06:56:17.272Z,91.48
2023-02-11T06:58:18.623Z,91.55
2023-02-11T07:00:20.042Z,91.65
2023-02-11T07:02:21.559Z,91.37
2023-02-11T07:04:23.055Z,91.67
2023-02-11T07:06:27.898Z,91.64
2023-02-11T07:08:29.456Z,91.31
2023-02-11T07:10:30.856Z,91.40
2023-02-11T07:12:32.592Z,91.82
2023-02-11T07:14:34.015Z,91.50
2023-02-11T07:16:35.511Z,91.85
2023-02-11T07:18:37.179Z,91.56
2023-02-11T07:20:38.929Z,91.63
2023-02-11T07:22:40.296Z,91.74
2023-02-11T07:24:41.720Z,91.55
2023-02-11T07:26:43.158Z,91.11
2023-02-11T07:28:45.079Z,91.66
2023-02-11T07:30:46.517Z,91.78
2023-02-11T07:32:48.848Z,91.30
2023-02-11T07:34:50.222Z,91.87
2023-02-11T07:36:51.698Z,91.68
2023-02-11T07:38:53.093Z,91.53
2023-02-11T07:40:54.490Z,91.26
2023-02-11T07:42:55.844Z,91.65
2023-02-11T07:44:57.273Z,91.40
2023-02-11T07:46:59.513Z,91.27
2023-02-11T07:49:01.147Z,91.21
2023-02-11T07:51:10.052Z,91.60
2023-02-11T07:53:11.442Z,91.65
2023-02-11T07:55:12.878Z,92.14
2023-02-11T07:57:14.228Z,91.72
2023-02-11T07:59:16.038Z,91.60
2023-02-11T08:01:26.371Z,91.55
2023-02-11T08:03:27.910Z,91.93
2023-02-11T08:05:30.323Z,91.67
2023-02-11T08:07:32.259Z,92.12
2023-02-11T08:09:34.627Z,92.06
2023-02-11T08:11:36.360Z,91.68
2023-02-11T08:13:38.546Z,92.50
2023-02-11T08:15:39.935Z,91.90
2023-02-11T08:17:41.327Z,91.62
2023-02-11T08:19:42.968Z,91.84
2023-02-11T08:21:44.880Z,92.12
2023-02-11T08:23:46.976Z,92.04
2023-02-11T08:25:48.368Z,92.09
2023-02-11T08:27:49.845Z,91.78
2023-02-11T08:29:51.351Z,92.01
2023-02-11T08:31:52.843Z,91.58
2023-02-11T08:36:25.846Z,92.20
2023-02-11T08:38:27.295Z,92.49
2023-02-11T08:40:28.730Z,92.17
2023-02-11T08:42:30.247Z,91.69
2023-02-11T08:44:31.637Z,91.97
2023-02-11T08:46:33.205Z,92.00
2023-02-11T08:48:34.981Z,91.54
2023-02-11T08:50:39.099Z,91.58
2023-02-11T08:52:40.567Z,91.69
2023-02-11T08:54:41.928Z,91.96
2023-02-11T08:56:43.785Z,91.48
2023-02-11T08:58:45.920Z,92.03
2023-02-11T09:00:48.447Z,91.68
2023-02-11T09:02:50.121Z,91.50
2023-02-11T09:04:51.500Z,91.60
2023-02-11T09:06:52.886Z,91.98
2023-02-11T09:08:57.190Z,91.69
2023-02-11T09:10:58.773Z,91.40
2023-02-11T09:13:00.163Z,91.72
2023-02-11T09:15:01.794Z,91.46
2023-02-11T09:17:03.207Z,92.28
2023-02-11T09:19:05.336Z,91.82
2023-02-11T09:21:08.803Z,91.19
2023-02-11T09:23:11.113Z,91.00
2023-02-11T09:25:12.526Z,91.30
2023-02-11T09:27:15.809Z,91.29
2023-02-11T09:29:17.195Z,91.64
2023-02-11T09:31:21.959Z,91.91
2023-02-11T09:33:23.501Z,91.58
2023-02-11T09:35:24.936Z,91.00
2023-02-11T09:37:26.416Z,91.43
2023-02-11T09:39:29.184Z,90.93
2023-02-11T09:41:42.534Z,91.39
2023-02-11T09:43:47.946Z,91.16
2023-02-11T09:45:50.171Z,90.76
2023-02-11T09:47:58.534Z,90.92
2023-02-11T09:50:15.693Z,91.56
2023-02-11T09:52:26.138Z,90.78
2023-02-11T09:54:41.223Z,90.88
2023-02-11T09:56:42.626Z,91.31
2023-02-11T09:58:45.060Z,91.09
2023-02-11T10:01:11.069Z,90.32
2023-02-11T10:03:21.475Z,91.20
2023-02-11T10:05:44.529Z,90.65
2023-02-11T10:08:30.536Z,90.93
2023-02-11T10:10:57.130Z,91.10
2023-02-11T10:13:19.800Z,90.70
2023-02-11T10:15:49.809Z,91.12
2023-02-11T10:18:19.321Z,90.67
2023-02-11T10:20:29.605Z,91.13
2023-02-11T10:22:39.331Z,90.02
2023-02-11T10:24:48.447Z,90.55
2023-02-11T10:26:51.888Z,90.10
2023-02-11T10:28:55.896Z,89.77
2023-02-11T10:31:00.519Z,90.21
2023-02-11T10:33:31.355Z,90.43
2023-02-11T10:35:33.098Z,89.40
2023-02-11T10:37:34.472Z,89.99
2023-02-11T10:39:35.840Z,89.71
2023-02-11T10:41:47.489Z,89.66
2023-02-11T10:43:50.395Z,89.67
2023-02-11T10:45:53.553Z,89.67
2023-02-11T10:47:55.352Z,89.79
2023-02-11T10:50:03.230Z,90.03
2023-02-11T10:52:23.678Z,90.25
2023-02-11T10:54:25.045Z,89.88
2023-02-11T10:56:28.234Z,89.04
2023-02-11T10:58:32.567Z,90.04
2023-02-11T11:00:40.512Z,88.97
2023-02-11T11:02:44.448Z,89.24
2023-02-11T11:04:47.452Z,89.37
2023-02-11T11:06:49.016Z,89.97
2023-02-11T11:08:51.781Z,89.56
2023-02-11T11:11:05.586Z,90.17
2023-02-11T11:13:22.943Z,89.80
2023-02-11T11:15:29.575Z,89.53
2023-02-11T11:17:31.097Z,89.30
2023-02-11T11:19:33.107Z,88.95
2023-02-11T11:21:36.566Z,88.88
2023-02-11T11:23:39.726Z,88.70
2023-02-11T11:25:45.879Z,89.07
2023-02-11T11:27:52.925Z,89.08
2023-02-11T11:29:55.935Z,89.24
2023-02-11T11:32:01.288Z,88.99
2023-02-11T11:34:28.455Z,90.06
2023-02-11T11:36:37.560Z,89.97
2023-02-11T11:38:48.988Z,89.54
2023-02-11T11:41:20.781Z,89.21
2023-02-11T11:43:23.454Z,89.34
2023-02-11T11:45:26.861Z,88.91
2023-02-11T11:47:44.068Z,89.40
2023-02-11T11:49:51.493Z,89.72
2023-02-11T11:52:11.801Z,89.02
2023-02-11T11:54:17.555Z,88.92
2023-02-11T11:56:25.080Z,88.96
2023-02-11T11:58:28.954Z,88.51
2023-02-11T12:00:51.182Z,88.05
2023-02-11T12:03:31.708Z,88.16
2023-02-11T12:05:45.312Z,88.63
2023-02-11T12:08:11.194Z,88.31
2023-02-11T12:10:40.045Z,89.08
2023-02-11T12:12:52.877Z,88.39
2023-02-11T12:15:19.046Z,88.40
2023-02-11T12:17:41.612Z,88.14
2023-02-11T12:20:18.634Z,88.86
2023-02-11T12:22:45.052Z,89.05
2023-02-11T12:25:06.207Z,89.03
2023-02-11T12:27:16.715Z,88.53
2023-02-11T12:29:55.374Z,88.83
2023-02-11T12:32:21.310Z,89.05
2023-02-11T12:34:22.547Z,87.86
2023-02-11T12:36:41.934Z,88.75
2023-02-11T12:39:10.305Z,88.69
2023-02-11T12:41:14.650Z,88.42
2023-02-11T12:43:22.180Z,89.00
2023-02-11T12:45:41.957Z,88.60
2023-02-11T12:48:22.648Z,89.09
2023-02-11T12:50:34.202Z,88.80
2023-02-11T12:52:47.168Z,88.08
2023-02-11T12:54:58.080Z,89.29
2023-02-11T12:57:21.567Z,88.37
2023-02-11T13:00:04.987Z,88.57
2023-02-11T13:02:18.282Z,88.99
2023-02-11T13:04:28.799Z,88.62
2023-02-11T13:06:38.662Z,88.78
2023-02-11T13:08:53.952Z,89.52
2023-02-11T13:11:02.455Z,88.05
2023-02-11T13:13:18.418Z,87.83
2023-02-11T13:15:19.844Z,88.21
2023-02-11T13:17:41.318Z,88.85
2023-02-11T13:19:58.111Z,88.91
2023-02-11T13:22:33.555Z,88.41
2023-02-11T13:24:55.762Z,88.39
2023-02-11T13:27:20.518Z,89.17
2023-02-11T13:30:01.209Z,88.78
2023-02-11T13:32:11.621Z,89.32
2023-02-11T13:34:51.730Z,88.58
2023-02-11T13:36:57.599Z,88.21
2023-02-11T13:39:02.415Z,88.65
2023-02-11T13:41:19.349Z,88.32
2023-02-11T13:43:23.543Z,89.04
2023-02-11T13:45:28.934Z,88.97
2023-02-11T13:47:33.475Z,88.90
2023-02-11T13:49:41.487Z,89.20
2023-02-11T13:51:43.216Z,88.15
2023-02-11T13:53:51.438Z,88.23
2023-02-11T13:56:06.202Z,88.38
2023-02-11T13:58:07.508Z,88.45
2023-02-11T14:00:26.933Z,88.80
2023-02-11T14:02:52.858Z,88.70
2023-02-11T14:05:29.794Z,89.02
2023-02-11T14:08:11.305Z,88.38
2023-02-11T14:10:43.628Z,88.73
2023-02-11T14:13:05.386Z,88.54
2023-02-11T14:15:12.794Z,88.30
2023-02-11T14:17:18.857Z,88.81
2023-02-11T14:19:43.529Z,89.12
2023-02-11T14:21:46.695Z,88.86
2023-02-11T14:23:48.815Z,88.95
2023-02-11T14:26:38.018Z,88.01
2023-02-11T14:28:44.689Z,88.14
2023-02-11T14:30:56.486Z,88.23
2023-02-11T14:33:23.699Z,88.70
2023-02-11T14:35:28.065Z,88.89
2023-02-11T14:37:52.165Z,88.89
2023-02-11T14:40:30.468Z,89.36
2023-02-11T14:42:31.947Z,88.63
2023-02-11T14:44:34.829Z,89.00
2023-02-11T14:46:36.560Z,88.71
2023-02-11T14:48:43.107Z,88.54
2023-02-11T14:50:48.312Z,88.10
2023-02-11T14:52:51.063Z,88.54
2023-02-11T14:55:09.070Z,88.21
2023-02-11T14:57:15.867Z,88.07
2023-02-11T14:59:19.969Z,87.58
2023-02-11T15:01:28.521Z,87.94
2023-02-11T15:03:33.164Z,87.29
2023-02-11T15:05:34.791Z,87.24
2023-02-11T15:07:36.179Z,87.77
2023-02-11T15:09:41.715Z,87.95
2023-02-11T15:11:46.668Z,86.85
2023-02-11T15:13:50.301Z,88.00
2023-02-11T15:15:55.677Z,87.52
2023-02-11T15:18:01.249Z,87.51
2023-02-11T15:20:03.190Z,87.02
2023-02-11T15:22:10.519Z,87.44
2023-02-11T15:24:31.258Z,87.40
2023-02-11T15:26:33.080Z,87.45
2023-02-11T15:28:35.514Z,87.22
2023-02-11T15:30:36.906Z,87.33
2023-02-11T15:32:45.065Z,86.85
2023-02-11T15:34:47.563Z,87.48
2023-02-11T15:36:48.972Z,87.17
2023-02-11T15:39:17.984Z,87.11
2023-02-11T15:41:37.947Z,86.85
2023-02-11T15:43:51.000Z,87.09
2023-02-11T15:45:52.331Z,87.08
2023-02-11T15:47:58.079Z,87.21
2023-02-11T15:49:59.822Z,87.11
2023-02-11T15:52:02.713Z,87.49
2023-02-11T15:54:15.140Z,87.12
2023-02-11T15:56:19.235Z,87.73
2023-02-11T15:58:22.696Z,87.50
2023-02-11T16:00:31.501Z,87.33
2023-02-11T16:02:36.419Z,87.90
2023-02-11T16:04:38.044Z,87.42
2023-02-11T16:06:42.255Z,87.32
2023-02-11T16:08:59.797Z,87.51
2023-02-11T16:11:08.496Z,87.96
2023-02-11T16:13:09.830Z,87.96
2023-02-11T16:15:30.695Z,88.22
2023-02-11T16:17:32.136Z,87.84
2023-02-11T16:19:35.873Z,88.24
2023-02-11T16:21:45.234Z,88.00
2023-02-11T16:23:54.202Z,88.43
2023-02-11T16:26:01.905Z,88.32
2023-02-11T16:28:03.518Z,88.29
2023-02-11T16:30:05.955Z,87.99
2023-02-11T16:32:10.413Z,88.23
2023-02-11T16:34:29.861Z,87.67
2023-02-11T16:36:31.209Z,87.78
2023-02-11T16:38:32.603Z,88.56
2023-02-11T16:40:33.968Z,88.02
2023-02-11T16:42:35.387Z,88.39
2023-02-11T16:44:36.798Z,88.46
2023-02-11T16:46:38.622Z,87.96
2023-02-11T16:48:40.115Z,88.40
2023-02-11T16:50:46.507Z,88.07
2023-02-11T16:52:48.357Z,88.28
2023-02-11T16:54:50.058Z,88.11
2023-02-11T16:56:51.488Z,88.10
2023-02-11T16:58:52.913Z,88.50
2023-02-11T17:00:56.888Z,88.37
2023-02-11T17:02:58.350Z,88.94
2023-02-11T17:05:02.437Z,88.27
2023-02-11T17:07:03.845Z,89.09
2023-02-11T17:09:06.676Z,88.46
2023-02-11T17:11:08.071Z,89.42
2023-02-11T17:13:09.469Z,88.89
2023-02-11T17:15:10.932Z,88.60
2023-02-11T17:17:12.872Z,89.41
2023-02-11T17:19:17.084Z,88.62
2023-02-11T17:21:18.554Z,88.72
2023-02-11T17:23:19.952Z,89.60
2023-02-11T17:25:23.359Z,89.04
2023-02-11T17:27:25.085Z,89.39
2023-02-11T17:29:27.073Z,89.75
2023-02-11T17:31:28.500Z,89.26
2023-02-11T17:33:29.900Z,89.74
2023-02-11T17:35:31.288Z,89.58
2023-02-11T17:37:32.820Z,89.47
2023-02-11T17:39:38.711Z,89.68
2023-02-11T17:41:40.567Z,89.02
2023-02-11T17:43:42.606Z,89.01
2023-02-11T17:45:44.087Z,89.15
2023-02-11T17:47:46.041Z,89.71
2023-02-11T17:49:47.381Z,89.19
2023-02-11T17:51:48.783Z,88.87
2023-02-11T17:53:50.444Z,89.36
2023-02-11T17:55:52.081Z,89.92
2023-02-11T17:57:53.680Z,88.96
2023-02-11T17:59:55.025Z,89.51
2023-02-11T18:01:56.406Z,90.08
2023-02-11T18:03:57.874Z,89.87
2023-02-11T18:06:01.613Z,89.61
2023-02-11T18:08:05.413Z,90.49
2023-02-11T18:10:08.320Z,89.91
2023-02-11T18:12:10.651Z,89.49
2023-02-11T18:14:14.042Z,89.65
2023-02-11T18:16:15.816Z,89.51
2023-02-11T18:18:17.400Z,89.52
2023-02-11T18:20:19.781Z,89.80
2023-02-11T18:22:21.184Z,89.61
2023-02-11T18:24:22.652Z,90.37
2023-02-11T18:26:28.139Z,89.68
2023-02-11T18:28:29.663Z,90.05
2023-02-11T18:30:31.220Z,89.33
2023-02-11T18:32:32.675Z,89.65
2023-02-11T18:34:34.105Z,89.97
2023-02-11T18:36:36.376Z,89.65
2023-02-11T18:38:38.149Z,89.76
2023-02-11T18:40:40.652Z,89.33
2023-02-11T18:42:42.738Z,89.18
2023-02-11T18:44:44.272Z,89.46
2023-02-11T18:46:45.656Z,90.10
2023-02-11T18:48:47.073Z,90.33
2023-02-11T18:50:48.735Z,90.09
2023-02-11T18:52:50.115Z,89.67
2023-02-11T18:54:52.273Z,90.48
2023-02-11T18:56:53.696Z,89.55
2023-02-11T18:58:56.488Z,90.23
2023-02-11T19:00:57.955Z,90.42
2023-02-11T19:03:01.316Z,89.72
2023-02-11T19:05:06.311Z,89.79
2023-02-11T19:07:07.719Z,89.49
2023-02-11T19:09:11.204Z,89.68
2023-02-11T19:11:14.481Z,90.66
2023-02-11T19:13:15.900Z,90.23
2023-02-11T19:15:17.300Z,90.00
2023-02-11T19:17:18.726Z,89.84
2023-02-11T19:19:22.194Z,89.99
2023-02-11T19:21:23.579Z,89.70
2023-02-11T19:23:24.935Z,90.10
2023-02-11T19:25:26.803Z,90.64
2023-02-11T19:27:28.204Z,89.91
2023-02-11T19:29:33.263Z,89.63
2023-02-11T19:31:34.951Z,90.69
2023-02-11T19:33:36.875Z,90.09
2023-02-11T19:35:38.276Z,90.43
2023-02-11T19:37:39.814Z,89.92
2023-02-11T19:39:42.673Z,89.51
2023-02-11T19:41:44.335Z,90.71
2023-02-11T19:43:47.713Z,90.28
2023-02-11T19:45:49.203Z,90.41
2023-02-11T19:47:55.290Z,90.73
2023-02-11T19:49:56.703Z,90.12
2023-02-11T19:51:58.394Z,90.25
2023-02-11T19:54:00.396Z,90.28
2023-02-11T19:56:03.029Z,90.46
2023-02-11T19:58:04.472Z,90.36
2023-02-11T20:00:06.774Z,90.53
2023-02-11T20:02:10.230Z,90.62
2023-02-11T20:04:13.124Z,90.80
2023-02-11T20:06:17.576Z,90.55
2023-02-11T20:08:18.978Z,90.00
2023-02-11T20:10:20.323Z,90.22
2023-02-11T20:12:21.753Z,90.82
2023-02-11T20:14:23.390Z,90.03
2023-02-11T20:16:44.662Z,90.39
2023-02-11T20:18:49.122Z,90.92
2023-02-11T20:20:50.535Z,89.89
2023-02-11T20:22:52.420Z,89.97
2023-02-11T20:24:53.858Z,90.18
2023-02-11T20:26:55.863Z,90.46
2023-02-11T20:29:02.100Z,89.85
2023-02-11T20:31:04.904Z,90.25
2023-02-11T20:33:06.473Z,90.93
2023-02-11T20:35:08.585Z,90.04
2023-02-11T20:37:10.370Z,90.20
2023-02-11T20:39:16.941Z,90.58
2023-02-11T20:41:24.669Z,91.01
2023-02-11T20:43:26.042Z,90.24
2023-02-11T20:45:27.437Z,89.89
2023-02-11T20:47:28.808Z,91.15
2023-02-11T20:49:30.451Z,90.15
2023-02-11T20:51:34.236Z,90.36
2023-02-11T20:53:37.731Z,90.09
2023-02-11T20:55:39.714Z,90.58
2023-02-11T20:57:41.121Z,90.20
2023-02-11T20:59:42.609Z,90.67
2023-02-11T21:01:46.778Z,90.45
2023-02-11T21:03:58.880Z,90.91
2023-02-11T21:06:00.795Z,90.79
2023-02-11T21:08:02.216Z,90.93
2023-02-11T21:10:04.241Z,90.87
2023-02-11T21:12:05.986Z,90.97
2023-02-11T21:14:07.687Z,90.45
2023-02-11T21:16:13.365Z,90.34
2023-02-11T21:18:14.799Z,90.54
2023-02-11T21:20:16.315Z,90.57
2023-02-11T21:22:17.699Z,91.28
2023-02-11T21:24:19.144Z,91.34
2023-02-11T21:26:20.606Z,90.45
2023-02-11T21:28:26.372Z,90.83
2023-02-11T21:30:27.813Z,91.47
2023-02-11T21:32:29.424Z,90.51
2023-02-11T21:34:30.814Z,91.59
2023-02-11T21:36:32.349Z,90.95
2023-02-11T21:38:34.670Z,91.19
2023-02-11T21:40:36.024Z,91.42
2023-02-11T21:42:37.439Z,91.24
2023-02-11T21:44:38.899Z,91.01
2023-02-11T21:46:40.601Z,91.44
2023-02-11T21:48:42.488Z,91.17
2023-02-11T21:50:46.558Z,91.43
2023-02-11T21:52:48.001Z,91.74
2023-02-11T21:54:50.438Z,90.92
2023-02-11T21:56:51.852Z,90.74
2023-02-11T21:58:54.715Z,91.53
2023-02-11T22:00:56.185Z,91.04
2023-02-11T22:02:58.651Z,91.27
2023-02-11T22:05:00.875Z,91.21
2023-02-11T22:07:03.411Z,90.87
2023-02-11T22:09:08.298Z,91.37
2023-02-11T22:11:12.228Z,91.22
2023-02-11T22:13:13.635Z,90.77
2023-02-11T22:15:15.041Z,91.45
2023-02-11T22:17:16.515Z,91.74
2023-02-11T22:19:18.764Z,91.32
2023-02-11T22:21:22.703Z,92.00
2023-02-11T22:23:24.195Z,91.57
2023-02-11T22:25:25.596Z,91.34
2023-02-11T22:27:27.016Z,91.52
2023-02-11T22:29:28.441Z,91.00
2023-02-11T22:31:33.043Z,90.75
2023-02-11T22:33:34.532Z,91.22
2023-02-11T22:35:35.902Z,90.48
2023-02-11T22:37:37.393Z,91.06
2023-02-11T22:39:38.793Z,90.85
2023-02-11T22:41:41.562Z,90.80
2023-02-11T22:43:43.864Z,90.56
2023-02-11T22:45:45.258Z,90.35
2023-02-11T22:47:46.640Z,91.63
2023-02-11T22:49:48.135Z,91.30
2023-02-11T22:51:49.525Z,90.12
2023-02-11T22:54:02.139Z,90.48
2023-02-11T22:56:05.655Z,89.88
2023-02-11T22:58:07.187Z,90.72
2023-02-11T23:00:09.766Z,91.07
2023-02-11T23:02:11.284Z,90.52
2023-02-11T23:04:15.536Z,91.06
2023-02-11T23:06:17.380Z,91.06
2023-02-11T23:08:18.775Z,90.39
2023-02-11T23:10:20.326Z,90.69
2023-02-11T23:12:21.716Z,90.88
2023-02-11T23:14:23.375Z,91.33
2023-02-11T23:16:34.271Z,90.82
2023-02-11T23:18:38.148Z,90.51
2023-02-11T23:20:42.131Z,90.36
2023-02-11T23:22:43.512Z,91.04
2023-02-11T23:24:44.898Z,90.72
2023-02-11T23:26:46.319Z,90.78
2023-02-11T23:28:47.849Z,91.12
2023-02-11T23:30:49.273Z,91.03
2023-02-11T23:32:51.690Z,90.20
2023-02-11T23:34:53.091Z,90.30
2023-02-11T23:36:54.750Z,90.51
2023-02-11T23:38:56.342Z,90.43
2023-02-11T23:40:57.721Z,91.32
2023-02-11T23:42:59.132Z,91.27
2023-02-11T23:45:01.404Z,90.69
2023-02-11T23:47:02.797Z,90.76
2023-02-11T23:49:04.406Z,91.35
2023-02-11T23:51:06.600Z,90.46
2023-02-11T23:53:08.000Z,90.68
2023-02-11T23:55:09.792Z,90.68
2023-02-11T23:57:11.167Z,90.46
2023-02-11T23:59:13.004Z,90.65
